Park City, Montana
Current Conditions -  °F | °C
As of 8:53 AM on Thursday 30 Oct 2014 (Local Time) from KBIL Reporting Station
Scattered Clouds Scattered Clouds  
Wind Chill: 28°   Ceiling: Unl
Heat Index: 37°   Visibility: 10mi
Dew Point: 26°   Wind: 16mph
Humidity: 65%   Direction: 230°SW
Pressure: 30.31"   Gusts: NA
Location:  45.63°N, 108.92°W
Report Text: KBIL 301453Z 23014KT 10SM FEW095 SCT240 03/M03 A3031 RMK AO2 SLP277 T00281033 53013
Loading
Personal Weather Stations






























Interactive Weather Map
Tropical Storm Tracking
New forecast layout! Learn more

10-Day Weather Forecast

Advertisements
Track Severe Weather on mobile